sensor_id;sensor_type;location;lat;lon;timestamp;temperature;humidity
15099;DHT22;33900;53.640;9.942;2023-08-24T00:01:15;21.90;90.40
15099;DHT22;33900;53.640;9.942;2023-08-24T00:03:44;21.90;90.40
15099;DHT22;33900;53.640;9.942;2023-08-24T00:06:11;21.80;90.40
15099;DHT22;33900;53.640;9.942;2023-08-24T00:08:37;21.80;90.50
15099;DHT22;33900;53.640;9.942;2023-08-24T00:11:03;21.70;90.50
15099;DHT22;33900;53.640;9.942;2023-08-24T00:13:28;21.70;90.50
15099;DHT22;33900;53.640;9.942;2023-08-24T00:15:54;21.70;90.50
15099;DHT22;33900;53.640;9.942;2023-08-24T00:18:19;21.70;90.60
15099;DHT22;33900;53.640;9.942;2023-08-24T00:20:47;21.70;90.60
15099;DHT22;33900;53.640;9.942;2023-08-24T00:23:14;21.60;90.60
15099;DHT22;33900;53.640;9.942;2023-08-24T00:25:39;21.60;90.60
15099;DHT22;33900;53.640;9.942;2023-08-24T00:28:06;21.60;90.60
15099;DHT22;33900;53.640;9.942;2023-08-24T00:30:32;21.50;90.60
15099;DHT22;33900;53.640;9.942;2023-08-24T00:32:57;21.50;90.60
15099;DHT22;33900;53.640;9.942;2023-08-24T00:35:23;21.40;90.60
15099;DHT22;33900;53.640;9.942;2023-08-24T00:37:50;21.40;90.70
15099;DHT22;33900;53.640;9.942;2023-08-24T00:40:16;21.40;90.70
15099;DHT22;33900;53.640;9.942;2023-08-24T00:42:45;21.40;90.70
15099;DHT22;33900;53.640;9.942;2023-08-24T00:45:13;21.40;90.80
15099;DHT22;33900;53.640;9.942;2023-08-24T00:47:40;21.30;90.70
15099;DHT22;33900;53.640;9.942;2023-08-24T00:50:07;21.30;90.80
15099;DHT22;33900;53.640;9.942;2023-08-24T00:52:33;21.30;90.80
15099;DHT22;33900;53.640;9.942;2023-08-24T00:54:59;21.30;90.80
15099;DHT22;33900;53.640;9.942;2023-08-24T00:57:26;21.30;90.80
15099;DHT22;33900;53.640;9.942;2023-08-24T00:59:52;21.30;90.90
15099;DHT22;33900;53.640;9.942;2023-08-24T01:02:18;21.30;90.90
15099;DHT22;33900;53.640;9.942;2023-08-24T01:04:44;21.30;90.90
15099;DHT22;33900;53.640;9.942;2023-08-24T01:07:12;21.20;90.90
15099;DHT22;33900;53.640;9.942;2023-08-24T01:09:37;21.20;90.90
15099;DHT22;33900;53.640;9.942;2023-08-24T01:17:09;21.10;91.00
15099;DHT22;33900;53.640;9.942;2023-08-24T01:19:43;21.10;91.00
15099;DHT22;33900;53.640;9.942;2023-08-24T01:22:19;21.10;91.00
15099;DHT22;33900;53.640;9.942;2023-08-24T01:24:47;21.10;91.10
15099;DHT22;33900;53.640;9.942;2023-08-24T01:27:13;21.10;91.10
15099;DHT22;33900;53.640;9.942;2023-08-24T01:29:40;21.00;91.40
15099;DHT22;33900;53.640;9.942;2023-08-24T01:32:10;21.00;91.10
15099;DHT22;33900;53.640;9.942;2023-08-24T01:34:37;21.00;91.10
15099;DHT22;33900;53.640;9.942;2023-08-24T01:37:04;20.90;91.10
15099;DHT22;33900;53.640;9.942;2023-08-24T01:39:35;20.90;91.20
15099;DHT22;33900;53.640;9.942;2023-08-24T01:42:02;20.90;91.20
15099;DHT22;33900;53.640;9.942;2023-08-24T01:44:28;20.90;91.20
15099;DHT22;33900;53.640;9.942;2023-08-24T01:46:55;20.90;91.20
15099;DHT22;33900;53.640;9.942;2023-08-24T01:49:25;20.80;91.30
15099;DHT22;33900;53.640;9.942;2023-08-24T01:51:51;20.80;91.30
15099;DHT22;33900;53.640;9.942;2023-08-24T01:54:16;20.80;91.30
15099;DHT22;33900;53.640;9.942;2023-08-24T01:56:42;20.80;91.30
15099;DHT22;33900;53.640;9.942;2023-08-24T01:59:07;20.70;91.30
15099;DHT22;33900;53.640;9.942;2023-08-24T02:01:33;20.70;91.30
15099;DHT22;33900;53.640;9.942;2023-08-24T02:03:59;20.70;91.70
15099;DHT22;33900;53.640;9.942;2023-08-24T02:06:25;20.70;91.40
15099;DHT22;33900;53.640;9.942;2023-08-24T02:08:51;20.70;91.40
15099;DHT22;33900;53.640;9.942;2023-08-24T02:11:17;20.60;91.40
15099;DHT22;33900;53.640;9.942;2023-08-24T02:13:44;20.60;91.40
15099;DHT22;33900;53.640;9.942;2023-08-24T02:16:10;20.60;91.70
15099;DHT22;33900;53.640;9.942;2023-08-24T02:18:37;20.60;91.50
15099;DHT22;33900;53.640;9.942;2023-08-24T02:21:07;20.50;91.50
15099;DHT22;33900;53.640;9.942;2023-08-24T02:23:33;20.60;91.50
15099;DHT22;33900;53.640;9.942;2023-08-24T02:25:58;20.50;91.50
15099;DHT22;33900;53.640;9.942;2023-08-24T02:28:24;20.50;91.50
15099;DHT22;33900;53.640;9.942;2023-08-24T02:30:49;20.50;91.90
15099;DHT22;33900;53.640;9.942;2023-08-24T02:33:17;20.40;91.50
15099;DHT22;33900;53.640;9.942;2023-08-24T02:35:42;20.40;91.50
15099;DHT22;33900;53.640;9.942;2023-08-24T02:38:10;20.40;91.50
15099;DHT22;33900;53.640;9.942;2023-08-24T02:40:35;20.40;91.60
15099;DHT22;33900;53.640;9.942;2023-08-24T02:43:01;20.40;91.60
15099;DHT22;33900;53.640;9.942;2023-08-24T02:45:27;20.30;91.60
15099;DHT22;33900;53.640;9.942;2023-08-24T02:47:53;20.30;91.60
15099;DHT22;33900;53.640;9.942;2023-08-24T02:50:19;20.30;91.70
15099;DHT22;33900;53.640;9.942;2023-08-24T02:52:44;20.30;91.70
15099;DHT22;33900;53.640;9.942;2023-08-24T02:55:11;20.30;91.70
15099;DHT22;33900;53.640;9.942;2023-08-24T02:57:36;20.30;91.70
15099;DHT22;33900;53.640;9.942;2023-08-24T03:00:03;20.30;91.70
15099;DHT22;33900;53.640;9.942;2023-08-24T03:02:28;20.30;91.70
15099;DHT22;33900;53.640;9.942;2023-08-24T03:04:54;20.30;91.70
15099;DHT22;33900;53.640;9.942;2023-08-24T03:07:21;20.20;91.70
15099;DHT22;33900;53.640;9.942;2023-08-24T03:09:46;20.20;91.70
15099;DHT22;33900;53.640;9.942;2023-08-24T03:12:12;20.20;91.80
15099;DHT22;33900;53.640;9.942;2023-08-24T03:14:38;20.20;91.80
15099;DHT22;33900;53.640;9.942;2023-08-24T03:17:03;20.10;91.80
15099;DHT22;33900;53.640;9.942;2023-08-24T03:19:30;20.10;91.80
15099;DHT22;33900;53.640;9.942;2023-08-24T03:21:55;20.10;91.80
15099;DHT22;33900;53.640;9.942;2023-08-24T03:24:21;20.10;91.80
15099;DHT22;33900;53.640;9.942;2023-08-24T03:26:47;20.10;91.80
15099;DHT22;33900;53.640;9.942;2023-08-24T03:29:14;20.10;91.80
15099;DHT22;33900;53.640;9.942;2023-08-24T03:31:40;20.10;91.90
15099;DHT22;33900;53.640;9.942;2023-08-24T03:34:05;20.00;91.80
15099;DHT22;33900;53.640;9.942;2023-08-24T03:36:31;20.00;91.80
15099;DHT22;33900;53.640;9.942;2023-08-24T03:38:58;20.00;91.80
15099;DHT22;33900;53.640;9.942;2023-08-24T03:41:23;20.00;91.80
15099;DHT22;33900;53.640;9.942;2023-08-24T03:43:49;20.00;91.90
15099;DHT22;33900;53.640;9.942;2023-08-24T03:46:15;20.00;91.90
15099;DHT22;33900;53.640;9.942;2023-08-24T03:48:43;19.90;91.90
15099;DHT22;33900;53.640;9.942;2023-08-24T03:51:08;19.90;91.90
15099;DHT22;33900;53.640;9.942;2023-08-24T03:53:36;19.90;91.90
15099;DHT22;33900;53.640;9.942;2023-08-24T03:56:02;19.90;91.90
15099;DHT22;33900;53.640;9.942;2023-08-24T03:58:34;19.90;91.90
15099;DHT22;33900;53.640;9.942;2023-08-24T04:01:00;19.90;91.90
15099;DHT22;33900;53.640;9.942;2023-08-24T04:03:26;19.80;91.90
15099;DHT22;33900;53.640;9.942;2023-08-24T04:05:52;19.80;91.90
15099;DHT22;33900;53.640;9.942;2023-08-24T04:08:17;19.90;92.00
15099;DHT22;33900;53.640;9.942;2023-08-24T04:10:43;19.80;92.00
15099;DHT22;33900;53.640;9.942;2023-08-24T04:13:08;19.80;92.00
15099;DHT22;33900;53.640;9.942;2023-08-24T04:15:35;19.70;92.00
15099;DHT22;33900;53.640;9.942;2023-08-24T04:18:01;19.80;92.00
15099;DHT22;33900;53.640;9.942;2023-08-24T04:20:27;19.70;92.00
15099;DHT22;33900;53.640;9.942;2023-08-24T04:22:52;19.70;92.00
15099;DHT22;33900;53.640;9.942;2023-08-24T04:25:18;19.70;92.00
15099;DHT22;33900;53.640;9.942;2023-08-24T04:27:43;19.70;92.00
15099;DHT22;33900;53.640;9.942;2023-08-24T04:30:09;19.70;92.00
15099;DHT22;33900;53.640;9.942;2023-08-24T04:32:37;19.70;92.00
15099;DHT22;33900;53.640;9.942;2023-08-24T04:35:03;19.60;92.00
15099;DHT22;33900;53.640;9.942;2023-08-24T04:37:28;19.60;92.00
15099;DHT22;33900;53.640;9.942;2023-08-24T04:39:54;19.60;92.10
15099;DHT22;33900;53.640;9.942;2023-08-24T04:42:19;19.60;92.10
15099;DHT22;33900;53.640;9.942;2023-08-24T04:44:45;19.60;92.10
15099;DHT22;33900;53.640;9.942;2023-08-24T04:47:11;19.60;92.10
15099;DHT22;33900;53.640;9.942;2023-08-24T04:49:37;19.50;92.10
15099;DHT22;33900;53.640;9.942;2023-08-24T04:52:02;19.50;92.10
15099;DHT22;33900;53.640;9.942;2023-08-24T04:54:28;19.50;92.10
15099;DHT22;33900;53.640;9.942;2023-08-24T04:56:54;19.50;92.10
15099;DHT22;33900;53.640;9.942;2023-08-24T04:59:20;19.50;92.10
15099;DHT22;33900;53.640;9.942;2023-08-24T05:01:45;19.50;92.10
15099;DHT22;33900;53.640;9.942;2023-08-24T05:04:13;19.50;92.50
15099;DHT22;33900;53.640;9.942;2023-08-24T05:06:39;19.50;92.20
15099;DHT22;33900;53.640;9.942;2023-08-24T05:09:04;19.50;92.20
15099;DHT22;33900;53.640;9.942;2023-08-24T05:11:30;19.50;92.20
15099;DHT22;33900;53.640;9.942;2023-08-24T05:13:56;19.50;92.20
15099;DHT22;33900;53.640;9.942;2023-08-24T05:16:21;19.50;92.20
15099;DHT22;33900;53.640;9.942;2023-08-24T05:18:47;19.50;92.20
15099;DHT22;33900;53.640;9.942;2023-08-24T05:21:13;19.50;92.20
15099;DHT22;33900;53.640;9.942;2023-08-24T05:23:38;19.50;92.20
15099;DHT22;33900;53.640;9.942;2023-08-24T05:26:04;19.50;92.30
15099;DHT22;33900;53.640;9.942;2023-08-24T05:28:31;19.50;92.30
15099;DHT22;33900;53.640;9.942;2023-08-24T05:30:57;19.50;92.30
15099;DHT22;33900;53.640;9.942;2023-08-24T05:33:23;19.50;92.30
15099;DHT22;33900;53.640;9.942;2023-08-24T05:35:49;19.50;92.30
15099;DHT22;33900;53.640;9.942;2023-08-24T05:38:15;19.50;92.30
15099;DHT22;33900;53.640;9.942;2023-08-24T05:40:48;19.50;92.30
15099;DHT22;33900;53.640;9.942;2023-08-24T05:43:14;19.50;92.30
15099;DHT22;33900;53.640;9.942;2023-08-24T05:45:39;19.60;92.40
15099;DHT22;33900;53.640;9.942;2023-08-24T05:48:06;19.60;92.40
15099;DHT22;33900;53.640;9.942;2023-08-24T05:50:32;19.60;92.40
15099;DHT22;33900;53.640;9.942;2023-08-24T05:52:57;19.60;92.40
15099;DHT22;33900;53.640;9.942;2023-08-24T05:55:23;19.70;92.50
15099;DHT22;33900;53.640;9.942;2023-08-24T05:57:49;19.70;92.40
15099;DHT22;33900;53.640;9.942;2023-08-24T06:00:14;19.70;92.40
15099;DHT22;33900;53.640;9.942;2023-08-24T06:02:41;19.70;92.40
15099;DHT22;33900;53.640;9.942;2023-08-24T06:05:07;19.70;92.80
15099;DHT22;33900;53.640;9.942;2023-08-24T06:07:33;19.80;92.50
15099;DHT22;33900;53.640;9.942;2023-08-24T06:09:59;19.80;92.40
15099;DHT22;33900;53.640;9.942;2023-08-24T06:12:24;19.90;92.50
15099;DHT22;33900;53.640;9.942;2023-08-24T06:14:50;19.90;92.80
15099;DHT22;33900;53.640;9.942;2023-08-24T06:17:16;19.90;92.50
15099;DHT22;33900;53.640;9.942;2023-08-24T06:19:42;19.90;92.50
15099;DHT22;33900;53.640;9.942;2023-08-24T06:22:08;19.90;92.50
15099;DHT22;33900;53.640;9.942;2023-08-24T06:24:34;20.00;92.50
15099;DHT22;33900;53.640;9.942;2023-08-24T06:27:00;20.10;92.50
15099;DHT22;33900;53.640;9.942;2023-08-24T06:29:27;20.10;92.50
15099;DHT22;33900;53.640;9.942;2023-08-24T06:31:53;20.10;92.50
15099;DHT22;33900;53.640;9.942;2023-08-24T06:34:18;20.20;92.50
15099;DHT22;33900;53.640;9.942;2023-08-24T06:36:44;20.20;92.40
15099;DHT22;33900;53.640;9.942;2023-08-24T06:39:10;20.30;92.40
15099;DHT22;33900;53.640;9.942;2023-08-24T06:41:35;20.30;92.30
15099;DHT22;33900;53.640;9.942;2023-08-24T06:44:06;20.30;92.20
15099;DHT22;33900;53.640;9.942;2023-08-24T06:46:31;20.40;92.20
15099;DHT22;33900;53.640;9.942;2023-08-24T06:48:59;20.40;92.10
15099;DHT22;33900;53.640;9.942;2023-08-24T06:51:25;20.40;92.10
15099;DHT22;33900;53.640;9.942;2023-08-24T06:53:51;20.50;92.10
15099;DHT22;33900;53.640;9.942;2023-08-24T06:56:16;20.50;92.10
15099;DHT22;33900;53.640;9.942;2023-08-24T06:58:43;20.50;92.00
15099;DHT22;33900;53.640;9.942;2023-08-24T07:01:09;20.60;92.00
15099;DHT22;33900;53.640;9.942;2023-08-24T07:03:36;20.60;91.90
15099;DHT22;33900;53.640;9.942;2023-08-24T07:06:02;20.70;91.90
15099;DHT22;33900;53.640;9.942;2023-08-24T07:08:28;20.70;91.80
15099;DHT22;33900;53.640;9.942;2023-08-24T07:10:53;20.80;91.80
15099;DHT22;33900;53.640;9.942;2023-08-24T07:13:19;20.80;91.70
15099;DHT22;33900;53.640;9.942;2023-08-24T07:15:45;20.80;91.70
15099;DHT22;33900;53.640;9.942;2023-08-24T07:18:10;20.90;91.70
15099;DHT22;33900;53.640;9.942;2023-08-24T07:20:36;20.90;91.70
15099;DHT22;33900;53.640;9.942;2023-08-24T07:23:02;20.90;91.60
15099;DHT22;33900;53.640;9.942;2023-08-24T07:25:28;21.00;91.50
15099;DHT22;33900;53.640;9.942;2023-08-24T07:27:53;21.00;91.50
15099;DHT22;33900;53.640;9.942;2023-08-24T07:30:28;21.10;91.50
15099;DHT22;33900;53.640;9.942;2023-08-24T07:32:54;21.10;91.40
15099;DHT22;33900;53.640;9.942;2023-08-24T07:35:19;21.20;91.40
15099;DHT22;33900;53.640;9.942;2023-08-24T07:37:48;21.20;91.30
15099;DHT22;33900;53.640;9.942;2023-08-24T07:40:14;21.30;91.40
15099;DHT22;33900;53.640;9.942;2023-08-24T07:42:46;21.40;91.20
15099;DHT22;33900;53.640;9.942;2023-08-24T07:45:13;21.40;91.10
15099;DHT22;33900;53.640;9.942;2023-08-24T07:47:39;21.50;91.00
15099;DHT22;33900;53.640;9.942;2023-08-24T07:50:05;21.50;91.00
15099;DHT22;33900;53.640;9.942;2023-08-24T07:52:31;21.60;91.00
15099;DHT22;33900;53.640;9.942;2023-08-24T07:54:57;21.60;90.90
15099;DHT22;33900;53.640;9.942;2023-08-24T07:57:25;21.60;90.90
15099;DHT22;33900;53.640;9.942;2023-08-24T07:59:53;21.60;90.90
15099;DHT22;33900;53.640;9.942;2023-08-24T08:02:19;21.70;90.90
15099;DHT22;33900;53.640;9.942;2023-08-24T08:04:45;21.80;90.90
15099;DHT22;33900;53.640;9.942;2023-08-24T08:07:10;21.80;90.70
15099;DHT22;33900;53.640;9.942;2023-08-24T08:09:36;21.90;90.20
15099;DHT22;33900;53.640;9.942;2023-08-24T08:12:02;22.00;90.30
15099;DHT22;33900;53.640;9.942;2023-08-24T08:14:29;22.00;90.30
15099;DHT22;33900;53.640;9.942;2023-08-24T08:16:55;22.10;90.30
15099;DHT22;33900;53.640;9.942;2023-08-24T08:19:23;22.20;90.30
15099;DHT22;33900;53.640;9.942;2023-08-24T08:21:50;22.40;90.20
15099;DHT22;33900;53.640;9.942;2023-08-24T08:24:16;22.50;90.20
15099;DHT22;33900;53.640;9.942;2023-08-24T08:26:41;22.60;90.30
15099;DHT22;33900;53.640;9.942;2023-08-24T08:29:07;22.60;90.40
15099;DHT22;33900;53.640;9.942;2023-08-24T08:31:33;22.80;90.60
15099;DHT22;33900;53.640;9.942;2023-08-24T08:33:58;22.90;90.40
15099;DHT22;33900;53.640;9.942;2023-08-24T08:36:27;23.10;90.30
15099;DHT22;33900;53.640;9.942;2023-08-24T08:38:52;23.30;90.20
15099;DHT22;33900;53.640;9.942;2023-08-24T08:41:20;23.60;89.60
15099;DHT22;33900;53.640;9.942;2023-08-24T08:43:46;23.90;89.50
15099;DHT22;33900;53.640;9.942;2023-08-24T08:46:12;24.20;88.40
15099;DHT22;33900;53.640;9.942;2023-08-24T08:48:40;24.50;88.30
15099;DHT22;33900;53.640;9.942;2023-08-24T08:51:06;24.80;85.80
15099;DHT22;33900;53.640;9.942;2023-08-24T08:53:32;25.10;84.20
15099;DHT22;33900;53.640;9.942;2023-08-24T08:55:58;25.30;81.50
15099;DHT22;33900;53.640;9.942;2023-08-24T08:58:29;25.50;80.50
15099;DHT22;33900;53.640;9.942;2023-08-24T09:00:55;25.60;80.30
15099;DHT22;33900;53.640;9.942;2023-08-24T09:03:20;26.10;80.10
15099;DHT22;33900;53.640;9.942;2023-08-24T09:05:46;26.50;79.10
15099;DHT22;33900;53.640;9.942;2023-08-24T09:08:14;26.40;78.30
15099;DHT22;33900;53.640;9.942;2023-08-24T09:10:41;26.20;78.10
15099;DHT22;33900;53.640;9.942;2023-08-24T09:13:07;25.90;78.70
15099;DHT22;33900;53.640;9.942;2023-08-24T09:15:34;25.70;79.20
15099;DHT22;33900;53.640;9.942;2023-08-24T09:18:00;25.50;79.70
15099;DHT22;33900;53.640;9.942;2023-08-24T09:20:27;25.40;80.00
15099;DHT22;33900;53.640;9.942;2023-08-24T09:22:54;25.20;79.90
15099;DHT22;33900;53.640;9.942;2023-08-24T09:25:22;25.10;80.10
15099;DHT22;33900;53.640;9.942;2023-08-24T09:27:56;25.00;80.10
15099;DHT22;33900;53.640;9.942;2023-08-24T09:30:21;24.80;80.20
15099;DHT22;33900;53.640;9.942;2023-08-24T09:32:47;24.70;80.30
15099;DHT22;33900;53.640;9.942;2023-08-24T09:35:12;24.60;80.50
15099;DHT22;33900;53.640;9.942;2023-08-24T09:37:39;24.50;80.70
15099;DHT22;33900;53.640;9.942;2023-08-24T09:40:06;24.40;80.90
15099;DHT22;33900;53.640;9.942;2023-08-24T09:42:40;24.30;80.90
15099;DHT22;33900;53.640;9.942;2023-08-24T09:45:08;24.30;81.00
15099;DHT22;33900;53.640;9.942;2023-08-24T09:47:36;24.30;81.20
15099;DHT22;33900;53.640;9.942;2023-08-24T09:50:03;24.20;81.00
15099;DHT22;33900;53.640;9.942;2023-08-24T09:52:30;24.20;81.10
15099;DHT22;33900;53.640;9.942;2023-08-24T09:54:56;24.20;81.30
15099;DHT22;33900;53.640;9.942;2023-08-24T09:57:25;24.10;81.30
15099;DHT22;33900;53.640;9.942;2023-08-24T09:59:50;24.00;81.50
15099;DHT22;33900;53.640;9.942;2023-08-24T10:02:20;24.00;81.70
15099;DHT22;33900;53.640;9.942;2023-08-24T10:04:46;24.00;82.00
15099;DHT22;33900;53.640;9.942;2023-08-24T10:07:13;23.90;81.80
15099;DHT22;33900;53.640;9.942;2023-08-24T10:09:47;24.00;82.00
15099;DHT22;33900;53.640;9.942;2023-08-24T10:12:15;23.90;82.10
15099;DHT22;33900;53.640;9.942;2023-08-24T10:14:53;23.90;82.10
15099;DHT22;33900;53.640;9.942;2023-08-24T10:17:19;23.80;82.30
15099;DHT22;33900;53.640;9.942;2023-08-24T10:19:45;23.80;82.50
15099;DHT22;33900;53.640;9.942;2023-08-24T10:22:11;23.80;82.70
15099;DHT22;33900;53.640;9.942;2023-08-24T10:24:37;23.80;82.90
15099;DHT22;33900;53.640;9.942;2023-08-24T10:27:03;23.80;83.10
15099;DHT22;33900;53.640;9.942;2023-08-24T10:29:29;23.80;83.20
15099;DHT22;33900;53.640;9.942;2023-08-24T10:31:55;23.80;83.20
15099;DHT22;33900;53.640;9.942;2023-08-24T10:34:21;23.70;83.30
15099;DHT22;33900;53.640;9.942;2023-08-24T10:36:48;23.70;83.40
15099;DHT22;33900;53.640;9.942;2023-08-24T10:39:14;23.70;83.60
15099;DHT22;33900;53.640;9.942;2023-08-24T10:41:47;23.70;83.70
15099;DHT22;33900;53.640;9.942;2023-08-24T10:44:19;23.70;83.50
15099;DHT22;33900;53.640;9.942;2023-08-24T10:46:45;23.70;83.50
15099;DHT22;33900;53.640;9.942;2023-08-24T10:49:31;23.70;82.90
15099;DHT22;33900;53.640;9.942;2023-08-24T10:51:57;23.70;82.50
15099;DHT22;33900;53.640;9.942;2023-08-24T10:55:05;23.70;82.80
15099;DHT22;33900;53.640;9.942;2023-08-24T10:57:17;23.70;82.90
15099;DHT22;33900;53.640;9.942;2023-08-24T10:59:44;23.70;83.00
15099;DHT22;33900;53.640;9.942;2023-08-24T11:02:17;23.70;83.10
15099;DHT22;33900;53.640;9.942;2023-08-24T11:05:03;23.70;83.20
15099;DHT22;33900;53.640;9.942;2023-08-24T11:07:29;23.70;83.30
15099;DHT22;33900;53.640;9.942;2023-08-24T11:09:54;23.70;83.30
15099;DHT22;33900;53.640;9.942;2023-08-24T11:12:20;23.80;83.00
15099;DHT22;33900;53.640;9.942;2023-08-24T11:14:48;23.70;82.80
15099;DHT22;33900;53.640;9.942;2023-08-24T11:17:17;23.80;82.90
15099;DHT22;33900;53.640;9.942;2023-08-24T11:19:49;23.80;82.10
15099;DHT22;33900;53.640;9.942;2023-08-24T11:22:17;23.90;80.70
15099;DHT22;33900;53.640;9.942;2023-08-24T11:24:42;23.90;80.80
15099;DHT22;33900;53.640;9.942;2023-08-24T11:27:08;24.00;81.30
15099;DHT22;33900;53.640;9.942;2023-08-24T11:29:37;24.00;81.50
15099;DHT22;33900;53.640;9.942;2023-08-24T11:32:03;24.00;81.50
15099;DHT22;33900;53.640;9.942;2023-08-24T11:34:32;24.10;81.60
15099;DHT22;33900;53.640;9.942;2023-08-24T11:36:59;24.10;81.30
15099;DHT22;33900;53.640;9.942;2023-08-24T11:39:25;24.20;80.80
15099;DHT22;33900;53.640;9.942;2023-08-24T11:42:00;24.20;78.70
15099;DHT22;33900;53.640;9.942;2023-08-24T11:44:26;24.30;79.50
15099;DHT22;33900;53.640;9.942;2023-08-24T11:46:52;24.30;79.80
15099;DHT22;33900;53.640;9.942;2023-08-24T11:49:17;24.30;79.40
15099;DHT22;33900;53.640;9.942;2023-08-24T11:51:46;24.30;79.00
15099;DHT22;33900;53.640;9.942;2023-08-24T11:54:16;24.40;78.20
15099;DHT22;33900;53.640;9.942;2023-08-24T11:56:42;24.50;76.70
15099;DHT22;33900;53.640;9.942;2023-08-24T11:59:10;24.50;77.20
15099;DHT22;33900;53.640;9.942;2023-08-24T12:01:37;24.50;76.40
15099;DHT22;33900;53.640;9.942;2023-08-24T12:04:06;24.60;77.30
15099;DHT22;33900;53.640;9.942;2023-08-24T12:06:34;24.70;77.70
15099;DHT22;33900;53.640;9.942;2023-08-24T12:09:00;24.70;78.20
15099;DHT22;33900;53.640;9.942;2023-08-24T12:11:28;24.80;78.10
15099;DHT22;33900;53.640;9.942;2023-08-24T12:13:54;24.80;78.10
15099;DHT22;33900;53.640;9.942;2023-08-24T12:16:22;24.90;77.50
15099;DHT22;33900;53.640;9.942;2023-08-24T12:18:50;24.90;78.10
15099;DHT22;33900;53.640;9.942;2023-08-24T12:21:16;25.00;78.40
15099;DHT22;33900;53.640;9.942;2023-08-24T12:23:42;25.10;78.40
15099;DHT22;33900;53.640;9.942;2023-08-24T12:26:07;25.20;76.50
15099;DHT22;33900;53.640;9.942;2023-08-24T12:28:33;25.30;76.50
15099;DHT22;33900;53.640;9.942;2023-08-24T12:31:02;25.40;75.80
15099;DHT22;33900;53.640;9.942;2023-08-24T12:33:30;25.40;74.90
15099;DHT22;33900;53.640;9.942;2023-08-24T12:35:56;25.50;75.60
15099;DHT22;33900;53.640;9.942;2023-08-24T12:38:23;25.60;74.50
15099;DHT22;33900;53.640;9.942;2023-08-24T12:40:49;25.70;73.20
15099;DHT22;33900;53.640;9.942;2023-08-24T12:43:23;25.70;73.80
15099;DHT22;33900;53.640;9.942;2023-08-24T12:45:49;25.70;74.10
15099;DHT22;33900;53.640;9.942;2023-08-24T12:48:15;25.70;74.70
15099;DHT22;33900;53.640;9.942;2023-08-24T12:50:40;25.80;74.30
15099;DHT22;33900;53.640;9.942;2023-08-24T12:53:06;25.80;74.40
15099;DHT22;33900;53.640;9.942;2023-08-24T12:55:32;25.80;73.10
15099;DHT22;33900;53.640;9.942;2023-08-24T12:57:58;25.80;72.70
15099;DHT22;33900;53.640;9.942;2023-08-24T13:00:24;25.80;73.60
15099;DHT22;33900;53.640;9.942;2023-08-24T13:02:52;25.80;74.10
15099;DHT22;33900;53.640;9.942;2023-08-24T13:05:17;25.80;74.40
15099;DHT22;33900;53.640;9.942;2023-08-24T13:07:43;25.90;74.30
15099;DHT22;33900;53.640;9.942;2023-08-24T13:10:11;25.90;74.50
15099;DHT22;33900;53.640;9.942;2023-08-24T13:12:37;25.90;74.10
15099;DHT22;33900;53.640;9.942;2023-08-24T13:15:03;26.00;74.30
15099;DHT22;33900;53.640;9.942;2023-08-24T13:17:29;26.00;74.20
15099;DHT22;33900;53.640;9.942;2023-08-24T13:19:55;26.00;74.20
15099;DHT22;33900;53.640;9.942;2023-08-24T13:22:21;26.10;74.60
15099;DHT22;33900;53.640;9.942;2023-08-24T13:24:46;26.10;72.90
15099;DHT22;33900;53.640;9.942;2023-08-24T13:27:12;26.20;71.80
15099;DHT22;33900;53.640;9.942;2023-08-24T13:29:38;26.30;72.00
15099;DHT22;33900;53.640;9.942;2023-08-24T13:32:03;26.40;71.30
15099;DHT22;33900;53.640;9.942;2023-08-24T13:34:30;26.40;70.70
15099;DHT22;33900;53.640;9.942;2023-08-24T13:36:56;26.40;71.60
15099;DHT22;33900;53.640;9.942;2023-08-24T13:39:22;26.40;71.40
15099;DHT22;33900;53.640;9.942;2023-08-24T13:41:48;26.50;71.90
15099;DHT22;33900;53.640;9.942;2023-08-24T13:44:13;26.40;71.20
15099;DHT22;33900;53.640;9.942;2023-08-24T13:46:39;26.50;71.40
15099;DHT22;33900;53.640;9.942;2023-08-24T13:49:05;26.50;70.80
15099;DHT22;33900;53.640;9.942;2023-08-24T13:51:30;26.50;71.70
15099;DHT22;33900;53.640;9.942;2023-08-24T13:53:56;26.50;72.00
15099;DHT22;33900;53.640;9.942;2023-08-24T13:56:22;26.60;72.10
15099;DHT22;33900;53.640;9.942;2023-08-24T13:58:48;26.60;72.20
15099;DHT22;33900;53.640;9.942;2023-08-24T14:01:13;26.70;72.50
15099;DHT22;33900;53.640;9.942;2023-08-24T14:03:39;26.70;72.40
15099;DHT22;33900;53.640;9.942;2023-08-24T14:06:08;26.80;73.00
15099;DHT22;33900;53.640;9.942;2023-08-24T14:08:34;26.90;72.20
15099;DHT22;33900;53.640;9.942;2023-08-24T14:11:02;26.90;72.20
15099;DHT22;33900;53.640;9.942;2023-08-24T14:13:28;26.90;72.30
15099;DHT22;33900;53.640;9.942;2023-08-24T14:15:55;26.90;72.50
15099;DHT22;33900;53.640;9.942;2023-08-24T14:18:23;26.90;73.60
15099;DHT22;33900;53.640;9.942;2023-08-24T14:20:48;26.90;72.40
15099;DHT22;33900;53.640;9.942;2023-08-24T14:23:14;26.90;71.20
15099;DHT22;33900;53.640;9.942;2023-08-24T14:25:40;26.90;71.40
15099;DHT22;33900;53.640;9.942;2023-08-24T14:28:05;26.80;71.00
15099;DHT22;33900;53.640;9.942;2023-08-24T14:30:31;26.80;70.80
15099;DHT22;33900;53.640;9.942;2023-08-24T14:32:56;26.80;70.90
15099;DHT22;33900;53.640;9.942;2023-08-24T14:35:22;26.70;70.60
15099;DHT22;33900;53.640;9.942;2023-08-24T14:37:48;26.70;70.90
15099;DHT22;33900;53.640;9.942;2023-08-24T14:40:13;26.70;70.30
15099;DHT22;33900;53.640;9.942;2023-08-24T14:42:41;26.70;71.50
15099;DHT22;33900;53.640;9.942;2023-08-24T14:45:07;26.70;71.40
15099;DHT22;33900;53.640;9.942;2023-08-24T14:47:33;26.60;71.10
15099;DHT22;33900;53.640;9.942;2023-08-24T14:49:58;26.50;71.20
15099;DHT22;33900;53.640;9.942;2023-08-24T14:52:24;26.50;71.50
15099;DHT22;33900;53.640;9.942;2023-08-24T14:54:49;26.50;71.30
15099;DHT22;33900;53.640;9.942;2023-08-24T14:57:15;26.50;71.00
15099;DHT22;33900;53.640;9.942;2023-08-24T14:59:41;26.50;71.50
15099;DHT22;33900;53.640;9.942;2023-08-24T15:02:06;26.50;70.80
15099;DHT22;33900;53.640;9.942;2023-08-24T15:04:33;26.50;71.20
15099;DHT22;33900;53.640;9.942;2023-08-24T15:06:58;26.50;71.70
15099;DHT22;33900;53.640;9.942;2023-08-24T15:09:25;26.40;71.30
15099;DHT22;33900;53.640;9.942;2023-08-24T15:11:51;26.40;71.50
15099;DHT22;33900;53.640;9.942;2023-08-24T15:14:16;26.40;71.30
15099;DHT22;33900;53.640;9.942;2023-08-24T15:16:42;26.40;71.30
15099;DHT22;33900;53.640;9.942;2023-08-24T15:19:07;26.40;71.50
15099;DHT22;33900;53.640;9.942;2023-08-24T15:21:33;26.30;71.60
15099;DHT22;33900;53.640;9.942;2023-08-24T15:23:58;26.30;71.90
15099;DHT22;33900;53.640;9.942;2023-08-24T15:26:24;26.40;72.00
15099;DHT22;33900;53.640;9.942;2023-08-24T15:31:34;26.30;71.60
15099;DHT22;33900;53.640;9.942;2023-08-24T15:34:00;26.30;71.10